Terminal Aerodrome Forecast
Issued by NWS Detroit/Pontiac, MI

Home | Current Version | Previous Version | Text Only | Print | Product List | Glossary On
Versions: 1 2 3 4 5 6 7 8 9 10 11 12
000
FTUS43 KDTX 241120
TAFFNT
TAF
KFNT 241120Z 2412/2512 20007KT P6SM SKC
     FM241600 22015G25KT P6SM OVC100
     FM242300 22012G21KT P6SM SCT040 OVC100
     FM250500 23011KT P6SM OVC030=

USA.gov is the U.S. government's official web portal to all federal, state and local government web resources and services.